DIADA EGPB-ENBR
Flight info
| Callsign | DIADA |
|---|---|
| Flight time | N/A |
| Altitude | 27000 |
| Route | BODAM DCT PEPIN DCT MODNI |
| Aircraft | B60T/L-SDFGRY/C |
Departure
| Time | N/A |
|---|---|
| Airport | Sumburgh Airport (EGPB) |
Arrival
| Time | 2026-04-30 21:57 |
|---|---|
| Airport | Bergen Airport, Flesland (ENBR) |
| Time | Latitude | Longitude | Altitude | Speed | Heading |
|---|---|---|---|---|---|
| 2026-04-30 21:18 | 60.00702 | 0.64385 | 27300 ft | 322 kts | 94° |
| 2026-04-30 21:18 | 60.00797 | 0.68850 | 27303 ft | 322 kts | 94° |
| 2026-04-30 21:18 | 60.00891 | 0.73320 | 27300 ft | 322 kts | 94° |
| 2026-04-30 21:18 | 60.00983 | 0.77791 | 27302 ft | 322 kts | 94° |
| 2026-04-30 21:19 | 60.01073 | 0.82256 | 27306 ft | 322 kts | 94° |
| 2026-04-30 21:19 | 60.01162 | 0.86732 | 27303 ft | 322 kts | 94° |
| 2026-04-30 21:19 | 60.01250 | 0.91198 | 27307 ft | 322 kts | 94° |
| 2026-04-30 21:19 | 60.01336 | 0.95665 | 27309 ft | 322 kts | 94° |
| 2026-04-30 21:20 | 60.01420 | 1.00132 | 27309 ft | 322 kts | 94° |
| 2026-04-30 21:20 | 60.01503 | 1.04600 | 27310 ft | 322 kts | 94° |
| 2026-04-30 21:20 | 60.01584 | 1.09068 | 27310 ft | 322 kts | 94° |
| 2026-04-30 21:20 | 60.01664 | 1.13537 | 27309 ft | 322 kts | 94° |
| 2026-04-30 21:21 | 60.01742 | 1.18006 | 27314 ft | 322 kts | 94° |
| 2026-04-30 21:21 | 60.01818 | 1.22431 | 27312 ft | 322 kts | 94° |
| 2026-04-30 21:21 | 60.01967 | 1.31382 | 27317 ft | 322 kts | 94° |
| 2026-04-30 21:22 | 60.02039 | 1.35853 | 27318 ft | 322 kts | 94° |
| 2026-04-30 21:22 | 60.02247 | 1.49281 | 27319 ft | 322 kts | 94° |
| 2026-04-30 21:23 | 60.02314 | 1.53752 | 27325 ft | 322 kts | 94° |
| 2026-04-30 21:23 | 60.02378 | 1.58175 | 27323 ft | 322 kts | 94° |
| 2026-04-30 21:23 | 60.02503 | 1.67122 | 27328 ft | 322 kts | 94° |
| 2026-04-30 21:24 | 60.02563 | 1.71589 | 27325 ft | 322 kts | 94° |
| 2026-04-30 21:24 | 60.02621 | 1.76060 | 27326 ft | 322 kts | 94° |
| 2026-04-30 21:24 | 60.02679 | 1.80536 | 27331 ft | 322 kts | 94° |
| 2026-04-30 21:24 | 60.02734 | 1.85020 | 27332 ft | 322 kts | 94° |
| 2026-04-30 21:25 | 60.02841 | 1.93964 | 27333 ft | 321 kts | 94° |
| 2026-04-30 21:25 | 60.02891 | 1.98384 | 27334 ft | 321 kts | 94° |
| 2026-04-30 21:25 | 60.02941 | 2.02862 | 27334 ft | 321 kts | 94° |
| 2026-04-30 21:26 | 60.03035 | 2.11799 | 27339 ft | 321 kts | 94° |
| 2026-04-30 21:26 | 60.03080 | 2.16272 | 27339 ft | 321 kts | 94° |
| 2026-04-30 21:27 | 60.03166 | 2.25213 | 27341 ft | 321 kts | 94° |
| 2026-04-30 21:27 | 60.03206 | 2.29691 | 27338 ft | 321 kts | 94° |
| 2026-04-30 21:27 | 60.03245 | 2.34163 | 27343 ft | 321 kts | 94° |
| 2026-04-30 21:28 | 60.03319 | 2.43090 | 27342 ft | 321 kts | 94° |
| 2026-04-30 21:28 | 60.03353 | 2.47552 | 27344 ft | 321 kts | 94° |
| 2026-04-30 21:28 | 60.03417 | 2.56426 | 27348 ft | 321 kts | 94° |
| 2026-04-30 21:29 | 60.03447 | 2.60891 | 27349 ft | 321 kts | 94° |
| 2026-04-30 21:29 | 60.03527 | 2.74275 | 27356 ft | 321 kts | 94° |
| 2026-04-30 21:30 | 60.03573 | 2.83205 | 27353 ft | 321 kts | 94° |
| 2026-04-30 21:31 | 60.03639 | 2.96490 | 27357 ft | 310 kts | 94° |
| 2026-04-30 21:31 | 60.03682 | 3.04971 | 27182 ft | 306 kts | 95° |
| 2026-04-30 21:32 | 60.03696 | 3.13623 | 26393 ft | 318 kts | 95° |
| 2026-04-30 21:32 | 60.03702 | 3.18075 | 26023 ft | 320 kts | 95° |
| 2026-04-30 21:32 | 60.03709 | 3.22515 | 25658 ft | 315 kts | 95° |
| 2026-04-30 21:32 | 60.03719 | 3.26848 | 25289 ft | 308 kts | 95° |
| 2026-04-30 21:33 | 60.03727 | 3.31113 | 24920 ft | 304 kts | 95° |
| 2026-04-30 21:33 | 60.03736 | 3.39436 | 24208 ft | 298 kts | 95° |
| 2026-04-30 21:33 | 60.03737 | 3.43569 | 23839 ft | 296 kts | 95° |
| 2026-04-30 21:34 | 60.03735 | 3.47688 | 23426 ft | 296 kts | 96° |
| 2026-04-30 21:34 | 60.03718 | 3.55943 | 22633 ft | 297 kts | 96° |
| 2026-04-30 21:34 | 60.03711 | 3.60067 | 22258 ft | 296 kts | 96° |
| 2026-04-30 21:35 | 60.03704 | 3.64184 | 21878 ft | 296 kts | 96° |
| 2026-04-30 21:35 | 60.03697 | 3.68310 | 21450 ft | 297 kts | 96° |
| 2026-04-30 21:35 | 60.03688 | 3.72440 | 21039 ft | 297 kts | 96° |
| 2026-04-30 21:35 | 60.03679 | 3.76576 | 20635 ft | 297 kts | 96° |
| 2026-04-30 21:36 | 60.03669 | 3.80712 | 20243 ft | 297 kts | 96° |
| 2026-04-30 21:36 | 60.03659 | 3.84824 | 19853 ft | 295 kts | 96° |
| 2026-04-30 21:37 | 60.04074 | 3.97020 | 18719 ft | 300 kts | 72° |
| 2026-04-30 21:37 | 60.05119 | 4.00645 | 18288 ft | 303 kts | 50° |
| 2026-04-30 21:37 | 60.06670 | 4.03484 | 17875 ft | 301 kts | 38° |
| 2026-04-30 21:37 | 60.08217 | 4.06224 | 17465 ft | 294 kts | 41° |
| 2026-04-30 21:38 | 60.09712 | 4.08993 | 16955 ft | 292 kts | 42° |
| 2026-04-30 21:38 | 60.11199 | 4.11744 | 16461 ft | 290 kts | 41° |
| 2026-04-30 21:38 | 60.12683 | 4.14475 | 15980 ft | 289 kts | 41° |
| 2026-04-30 21:38 | 60.14161 | 4.17182 | 15499 ft | 287 kts | 41° |
| 2026-04-30 21:39 | 60.15632 | 4.19888 | 15037 ft | 286 kts | 42° |
| 2026-04-30 21:39 | 60.17093 | 4.22578 | 14586 ft | 284 kts | 41° |
| 2026-04-30 21:39 | 60.18532 | 4.25222 | 14140 ft | 283 kts | 41° |
| 2026-04-30 21:39 | 60.19982 | 4.27885 | 13642 ft | 282 kts | 41° |
| 2026-04-30 21:40 | 60.21425 | 4.30534 | 13160 ft | 279 kts | 41° |
| 2026-04-30 21:40 | 60.22856 | 4.33159 | 12647 ft | 277 kts | 41° |
| 2026-04-30 21:40 | 60.24280 | 4.35751 | 12132 ft | 274 kts | 41° |
| 2026-04-30 21:40 | 60.25684 | 4.38324 | 11638 ft | 272 kts | 42° |
| 2026-04-30 21:41 | 60.27068 | 4.40895 | 11144 ft | 270 kts | 42° |
| 2026-04-30 21:41 | 60.28426 | 4.43424 | 10667 ft | 260 kts | 42° |
| 2026-04-30 21:41 | 60.29733 | 4.45864 | 10186 ft | 253 kts | 42° |
| 2026-04-30 21:41 | 60.31014 | 4.48245 | 9665 ft | 249 kts | 42° |
| 2026-04-30 21:42 | 60.32277 | 4.50590 | 9168 ft | 245 kts | 42° |
| 2026-04-30 21:42 | 60.33520 | 4.52897 | 8804 ft | 244 kts | 41° |
| 2026-04-30 21:42 | 60.34819 | 4.55288 | 8531 ft | 251 kts | 41° |
| 2026-04-30 21:42 | 60.36053 | 4.57737 | 8249 ft | 248 kts | 50° |
| 2026-04-30 21:43 | 60.37020 | 4.60594 | 7964 ft | 246 kts | 64° |
| 2026-04-30 21:43 | 60.37823 | 4.63633 | 7696 ft | 244 kts | 62° |
| 2026-04-30 21:43 | 60.38687 | 4.66480 | 7440 ft | 242 kts | 54° |
| 2026-04-30 21:43 | 60.39896 | 4.68791 | 7143 ft | 237 kts | 31° |
| 2026-04-30 21:44 | 60.41380 | 4.70100 | 6868 ft | 230 kts | 9° |
| 2026-04-30 21:44 | 60.42942 | 4.70378 | 6576 ft | 222 kts | 350° |
| 2026-04-30 21:44 | 60.44408 | 4.69658 | 6286 ft | 214 kts | 332° |
| 2026-04-30 21:44 | 60.45828 | 4.68737 | 6001 ft | 217 kts | 344° |
| 2026-04-30 21:45 | 60.47348 | 4.68507 | 5725 ft | 221 kts | 356° |
| 2026-04-30 21:45 | 60.48878 | 4.68599 | 5461 ft | 219 kts | 357° |
| 2026-04-30 21:45 | 60.50403 | 4.68646 | 5192 ft | 219 kts | 358° |
| 2026-04-30 21:45 | 60.51915 | 4.69017 | 4914 ft | 220 kts | 9° |
| 2026-04-30 21:46 | 60.53375 | 4.70006 | 4633 ft | 222 kts | 21° |
| 2026-04-30 21:46 | 60.54808 | 4.71151 | 4361 ft | 221 kts | 18° |
| 2026-04-30 21:46 | 60.56250 | 4.72210 | 4094 ft | 220 kts | 21° |
| 2026-04-30 21:46 | 60.57552 | 4.73670 | 4025 ft | 213 kts | 36° |
| 2026-04-30 21:47 | 60.58700 | 4.75560 | 4011 ft | 212 kts | 41° |
| 2026-04-30 21:47 | 60.59826 | 4.77490 | 4001 ft | 212 kts | 41° |
| 2026-04-30 21:47 | 60.60944 | 4.79433 | 3997 ft | 211 kts | 44° |
| 2026-04-30 21:47 | 60.61838 | 4.81765 | 3997 ft | 208 kts | 67° |
| 2026-04-30 21:48 | 60.62322 | 4.84514 | 3993 ft | 205 kts | 81° |
| 2026-04-30 21:48 | 60.62456 | 4.87358 | 3992 ft | 200 kts | 98° |
| 2026-04-30 21:48 | 60.62167 | 4.90076 | 3990 ft | 195 kts | 117° |
| 2026-04-30 21:48 | 60.61501 | 4.92417 | 3995 ft | 189 kts | 135° |
| 2026-04-30 21:49 | 60.60551 | 4.94206 | 3995 ft | 184 kts | 151° |
| 2026-04-30 21:49 | 60.59417 | 4.95318 | 3993 ft | 179 kts | 168° |
| 2026-04-30 21:49 | 60.58212 | 4.95959 | 3991 ft | 180 kts | 168° |
| 2026-04-30 21:49 | 60.57013 | 4.96700 | 3991 ft | 180 kts | 167° |
| 2026-04-30 21:50 | 60.55791 | 4.97471 | 3988 ft | 189 kts | 167° |
| 2026-04-30 21:50 | 60.54512 | 4.98251 | 3993 ft | 194 kts | 167° |
| 2026-04-30 21:50 | 60.53215 | 4.99036 | 3994 ft | 194 kts | 167° |
| 2026-04-30 21:50 | 60.51925 | 4.99826 | 3992 ft | 193 kts | 167° |
| 2026-04-30 21:51 | 60.50643 | 5.00615 | 3992 ft | 193 kts | 165° |
| 2026-04-30 21:51 | 60.49473 | 5.01896 | 3898 ft | 196 kts | 145° |
| 2026-04-30 21:51 | 60.48589 | 5.04044 | 3707 ft | 201 kts | 123° |
| 2026-04-30 21:51 | 60.48208 | 5.06764 | 3463 ft | 203 kts | 100° |
| 2026-04-30 21:52 | 60.48024 | 5.09581 | 3231 ft | 200 kts | 105° |
| 2026-04-30 21:52 | 60.47722 | 5.12324 | 3034 ft | 196 kts | 112° |
| 2026-04-30 21:52 | 60.47068 | 5.14600 | 3017 ft | 182 kts | 139° |
| 2026-04-30 21:52 | 60.46091 | 5.16130 | 3007 ft | 174 kts | 158° |
| 2026-04-30 21:53 | 60.44928 | 5.16603 | 3001 ft | 170 kts | 176° |
| 2026-04-30 21:53 | 60.43748 | 5.16887 | 2926 ft | 174 kts | 174° |
| 2026-04-30 21:53 | 60.42561 | 5.17320 | 2686 ft | 172 kts | 171° |
| 2026-04-30 21:53 | 60.41393 | 5.17751 | 2437 ft | 169 kts | 172° |
| 2026-04-30 21:54 | 60.40237 | 5.18131 | 2225 ft | 168 kts | 173° |
| 2026-04-30 21:54 | 60.39096 | 5.18507 | 1982 ft | 167 kts | 172° |
| 2026-04-30 21:54 | 60.37977 | 5.18893 | 1762 ft | 162 kts | 172° |
| 2026-04-30 21:54 | 60.36866 | 5.19275 | 1533 ft | 162 kts | 171° |
| 2026-04-30 21:55 | 60.35749 | 5.19656 | 1320 ft | 163 kts | 171° |
| 2026-04-30 21:55 | 60.34627 | 5.20031 | 1083 ft | 158 kts | 171° |
| 2026-04-30 21:55 | 60.33665 | 5.20353 | 874 ft | 129 kts | 170° |
| 2026-04-30 21:55 | 60.32922 | 5.20607 | 728 ft | 96 kts | 169° |
| 2026-04-30 21:56 | 60.32222 | 5.20862 | 592 ft | 107 kts | 170° |
| 2026-04-30 21:56 | 60.31480 | 5.21077 | 429 ft | 109 kts | 171° |
| 2026-04-30 21:56 | 60.30789 | 5.21328 | 272 ft | 98 kts | 169° |
| 2026-04-30 21:56 | 60.30141 | 5.21548 | 162 ft | 89 kts | 171° |
| 2026-04-30 21:57 | 60.29665 | 5.21706 | 140 ft | 46 kts | 169° |
| 2026-04-30 21:57 | 60.29412 | 5.21801 | 148 ft | 20 kts | 152° |
| 2026-04-30 21:57 | 60.29386 | 5.21942 | 149 ft | 12 kts | 86° |
| 2026-04-30 21:57 | 60.29394 | 5.22029 | 152 ft | 0 kts | 81° |
| 2026-04-30 21:58 | 60.29394 | 5.22030 | 152 ft | 0 kts | 81° |
| 2026-04-30 21:58 | 60.29394 | 5.22033 | 153 ft | 2 kts | 80° |
| 2026-04-30 21:59 | 60.29404 | 5.22154 | 155 ft | 15 kts | 79° |
| 2026-04-30 21:59 | 60.29462 | 5.22215 | 153 ft | 9 kts | 350° |
| 2026-04-30 21:59 | 60.29516 | 5.22201 | 149 ft | 7 kts | 2° |
| 2026-04-30 22:00 | 60.29558 | 5.22312 | 144 ft | 4 kts | 80° |
| 2026-04-30 22:00 | 60.29648 | 5.22376 | 143 ft | 10 kts | 292° |
| 2026-04-30 22:00 | 60.29644 | 5.22273 | 143 ft | 0 kts | 260° |